createdAt,value
2018-06-09T00:01:09.537Z,99.90
2018-06-09T00:03:39.368Z,99.90
2018-06-09T00:06:09.178Z,99.90
2018-06-09T00:08:38.992Z,99.90
2018-06-09T00:11:08.800Z,99.90
2018-06-09T00:13:39.295Z,99.90
2018-06-09T00:16:09.061Z,99.90
2018-06-09T00:18:38.843Z,99.90
2018-06-09T00:21:08.661Z,99.90
2018-06-09T00:23:38.520Z,99.90
2018-06-09T00:26:08.953Z,99.90
2018-06-09T00:28:38.837Z,99.90
2018-06-09T00:31:08.671Z,99.90
2018-06-09T00:33:38.457Z,99.90
2018-06-09T00:36:08.229Z,99.90
2018-06-09T00:38:38.660Z,99.90
2018-06-09T00:41:08.468Z,99.90
2018-06-09T00:43:39.044Z,99.90
2018-06-09T00:48:38.136Z,99.90
2018-06-09T00:51:08.073Z,99.90
2018-06-09T00:53:37.868Z,99.90
2018-06-09T00:56:19.110Z,99.90
2018-06-09T00:58:48.909Z,99.90
2018-06-09T01:01:18.678Z,99.90
2018-06-09T01:06:18.764Z,99.90
2018-06-09T01:08:49.552Z,99.90
2018-06-09T01:13:48.681Z,99.90
2018-06-09T01:16:18.444Z,99.90
2018-06-09T01:18:48.241Z,99.90
2018-06-09T01:21:18.011Z,99.90
2018-06-09T01:23:47.793Z,99.90
2018-06-09T01:26:17.601Z,99.90
2018-06-09T01:28:47.396Z,99.90
2018-06-09T01:31:17.157Z,99.90
2018-06-09T01:38:46.699Z,99.90
2018-06-09T01:41:16.449Z,99.90
2018-06-09T01:43:46.853Z,99.90
2018-06-09T01:46:16.623Z,99.90
2018-06-09T01:51:15.670Z,99.90
2018-06-09T01:53:45.421Z,99.90
2018-06-09T01:56:15.209Z,99.90
2018-06-09T01:58:45.020Z,99.90
2018-06-09T02:01:14.929Z,99.90
2018-06-09T02:03:44.739Z,99.90
2018-06-09T02:06:14.522Z,99.90
2018-06-09T02:08:44.326Z,99.90
2018-06-09T02:11:14.148Z,99.90
2018-06-09T02:13:43.960Z,99.90
2018-06-09T02:16:13.746Z,99.90
2018-06-09T02:18:43.524Z,99.90
2018-06-09T02:21:13.309Z,99.90
2018-06-09T02:23:43.106Z,99.90
2018-06-09T02:28:42.100Z,99.90
2018-06-09T02:31:11.897Z,99.90
2018-06-09T02:33:41.877Z,99.90
2018-06-09T02:36:11.645Z,99.90
2018-06-09T02:38:41.427Z,99.90
2018-06-09T02:41:11.233Z,99.90
2018-06-09T02:43:41.128Z,99.90
2018-06-09T02:46:11.838Z,99.90
2018-06-09T02:48:41.610Z,99.90
2018-06-09T02:51:11.768Z,99.90
2018-06-09T02:53:41.544Z,99.90
2018-06-09T02:56:11.337Z,99.90
2018-06-09T02:58:41.388Z,99.90
2018-06-09T03:01:11.177Z,99.90
2018-06-09T03:03:40.952Z,99.90
2018-06-09T03:06:12.453Z,99.90
2018-06-09T03:08:42.259Z,99.90
2018-06-09T03:11:12.017Z,99.90
2018-06-09T03:13:42.398Z,99.90
2018-06-09T03:16:15.092Z,99.90
2018-06-09T03:18:45.203Z,99.90
2018-06-09T03:21:15.008Z,99.90
2018-06-09T03:23:44.769Z,99.90
2018-06-09T03:26:14.574Z,99.90
2018-06-09T03:28:44.379Z,99.90
2018-06-09T03:31:14.135Z,99.90
2018-06-09T03:33:43.909Z,99.90
2018-06-09T03:36:13.677Z,99.90
2018-06-09T03:38:44.633Z,99.90
2018-06-09T03:41:14.423Z,99.90
2018-06-09T03:43:44.208Z,99.90
2018-06-09T03:48:43.677Z,99.90
2018-06-09T03:51:13.460Z,99.90
2018-06-09T03:53:43.228Z,99.90
2018-06-09T03:56:13.030Z,99.90
2018-06-09T04:01:12.268Z,99.90
2018-06-09T04:03:42.092Z,99.90
2018-06-09T04:06:11.867Z,99.90
2018-06-09T04:11:11.264Z,99.90
2018-06-09T04:13:41.162Z,99.90
2018-06-09T04:16:10.945Z,99.90
2018-06-09T04:18:42.391Z,99.90
2018-06-09T04:21:12.160Z,99.90
2018-06-09T04:23:41.917Z,99.90
2018-06-09T04:26:11.684Z,99.90
2018-06-09T04:31:10.733Z,99.90
2018-06-09T04:33:40.595Z,99.90
2018-06-09T04:36:10.373Z,99.90
2018-06-09T04:38:40.194Z,99.90
2018-06-09T04:41:09.963Z,99.90
2018-06-09T04:43:39.925Z,99.90
2018-06-09T04:46:09.729Z,99.90
2018-06-09T04:48:39.508Z,99.90
2018-06-09T04:51:09.554Z,99.90
2018-06-09T04:53:39.320Z,99.90
2018-06-09T04:56:09.092Z,99.90
2018-06-09T04:58:38.902Z,99.90
2018-06-09T05:03:38.462Z,99.90
2018-06-09T05:06:08.258Z,99.90
2018-06-09T05:11:08.012Z,99.90
2018-06-09T05:13:37.798Z,99.90
2018-06-09T05:16:07.618Z,99.90
2018-06-09T05:18:37.394Z,99.90
2018-06-09T05:21:07.163Z,99.90
2018-06-09T05:23:37.705Z,99.90
2018-06-09T05:26:07.473Z,99.90
2018-06-09T05:28:37.332Z,99.90
2018-06-09T05:31:07.131Z,99.90
2018-06-09T05:33:36.945Z,99.90
2018-06-09T05:36:07.040Z,99.90
2018-06-09T05:38:37.193Z,99.90
2018-06-09T05:41:06.989Z,99.90
2018-06-09T05:43:37.680Z,99.90
2018-06-09T05:46:07.440Z,99.90
2018-06-09T05:48:37.296Z,99.90
2018-06-09T05:51:07.075Z,99.90
2018-06-09T05:53:37.800Z,99.90
2018-06-09T05:56:07.583Z,99.90
2018-06-09T05:58:37.360Z,99.90
2018-06-09T06:01:07.135Z,99.90
2018-06-09T06:03:36.950Z,99.90
2018-06-09T06:06:22.463Z,99.90
2018-06-09T06:08:53.740Z,99.90
2018-06-09T06:11:23.534Z,99.90
2018-06-09T06:13:53.344Z,99.90
2018-06-09T06:16:23.174Z,99.90
2018-06-09T06:21:22.226Z,99.90
2018-06-09T06:23:51.987Z,99.90
2018-06-09T06:26:21.789Z,99.90
2018-06-09T06:28:51.568Z,99.90
2018-06-09T06:31:21.417Z,99.90
2018-06-09T06:33:51.236Z,99.90
2018-06-09T06:36:22.114Z,99.90
2018-06-09T06:38:51.930Z,99.90
2018-06-09T06:41:21.737Z,99.90
2018-06-09T06:43:51.625Z,99.90
2018-06-09T06:46:21.510Z,99.90
2018-06-09T06:48:51.312Z,99.90
2018-06-09T06:53:50.475Z,99.90
2018-06-09T06:56:20.249Z,99.90
2018-06-09T06:58:50.177Z,99.90
2018-06-09T07:01:20.747Z,99.90
2018-06-09T07:03:50.514Z,99.90
2018-06-09T07:06:20.940Z,99.90
2018-06-09T07:08:51.385Z,99.90
2018-06-09T07:11:21.178Z,99.90
2018-06-09T07:13:50.992Z,99.90
2018-06-09T07:16:21.519Z,99.90
2018-06-09T07:18:51.485Z,99.90
2018-06-09T07:23:50.552Z,99.90
2018-06-09T07:26:21.065Z,99.90
2018-06-09T07:28:51.090Z,99.90
2018-06-09T07:31:20.874Z,99.90
2018-06-09T07:33:50.672Z,99.90
2018-06-09T07:36:21.049Z,99.90
2018-06-09T07:38:50.936Z,99.90
2018-06-09T07:41:20.812Z,99.90
2018-06-09T07:43:50.684Z,99.90
2018-06-09T07:46:20.485Z,99.90
2018-06-09T07:48:50.322Z,99.90
2018-06-09T07:51:20.117Z,99.90
2018-06-09T07:53:49.919Z,99.90
2018-06-09T07:56:20.355Z,99.90
2018-06-09T07:58:50.332Z,99.90
2018-06-09T08:01:20.076Z,99.90
2018-06-09T08:03:49.866Z,99.90
2018-06-09T08:06:19.653Z,99.90
2018-06-09T08:08:49.436Z,99.90
2018-06-09T08:16:18.318Z,99.90
2018-06-09T08:18:48.565Z,99.90
2018-06-09T08:21:18.405Z,99.90
2018-06-09T08:23:48.813Z,99.90
2018-06-09T08:26:18.603Z,99.90
2018-06-09T08:28:48.407Z,99.90
2018-06-09T08:31:18.211Z,99.90
2018-06-09T08:33:48.149Z,99.90
2018-06-09T08:36:17.989Z,99.90
2018-06-09T08:38:47.732Z,99.90
2018-06-09T08:41:17.548Z,99.90
2018-06-09T08:43:47.344Z,99.90
2018-06-09T08:46:17.142Z,99.90
2018-06-09T08:48:46.981Z,99.90
2018-06-09T08:51:16.783Z,99.90
2018-06-09T08:53:46.548Z,99.90
2018-06-09T08:56:17.037Z,99.90
2018-06-09T08:58:46.849Z,99.90
2018-06-09T09:01:16.661Z,99.90
2018-06-09T09:03:46.456Z,99.90
2018-06-09T09:06:16.991Z,99.90
2018-06-09T09:08:46.913Z,99.90
2018-06-09T09:11:16.782Z,99.90
2018-06-09T09:13:46.592Z,99.90
2018-06-09T09:16:16.400Z,99.90
2018-06-09T09:18:46.920Z,99.90
2018-06-09T09:21:16.706Z,99.90
2018-06-09T09:23:47.577Z,99.90
2018-06-09T09:26:17.434Z,99.90
2018-06-09T09:28:47.289Z,99.90
2018-06-09T09:31:18.084Z,99.90
2018-06-09T09:33:48.503Z,99.90
2018-06-09T09:36:18.306Z,99.90
2018-06-09T09:38:48.936Z,99.90
2018-06-09T09:41:18.809Z,99.90
2018-06-09T09:43:49.087Z,99.90
2018-06-09T09:46:19.080Z,99.90
2018-06-09T09:48:49.324Z,99.90
2018-06-09T09:53:49.732Z,99.90
2018-06-09T09:56:19.546Z,99.90
2018-06-09T09:58:49.445Z,99.90
2018-06-09T10:01:19.288Z,99.90
2018-06-09T10:03:49.097Z,99.10
2018-06-09T10:06:19.649Z,97.40
2018-06-09T10:08:49.569Z,95.60
2018-06-09T10:11:19.367Z,95.00
2018-06-09T10:16:19.383Z,93.10
2018-06-09T10:18:49.215Z,92.10
2018-06-09T10:21:19.049Z,92.10
2018-06-09T10:23:49.525Z,90.50
2018-06-09T10:26:19.327Z,90.10
2018-06-09T10:28:49.861Z,88.90
2018-06-09T10:31:19.733Z,87.00
2018-06-09T10:33:49.487Z,86.00
2018-06-09T10:36:19.601Z,84.60
2018-06-09T10:38:49.496Z,83.50
2018-06-09T10:41:19.361Z,84.30
2018-06-09T10:43:49.249Z,83.50
2018-06-09T10:46:19.097Z,83.60
2018-06-09T10:48:49.090Z,82.30
2018-06-09T10:51:19.597Z,82.50
2018-06-09T10:53:49.891Z,81.50
2018-06-09T10:56:19.793Z,81.10
2018-06-09T10:58:49.634Z,82.40
2018-06-09T11:03:49.601Z,82.60
2018-06-09T11:06:19.425Z,80.60
2018-06-09T11:08:49.244Z,80.80
2018-06-09T11:11:19.968Z,81.30
2018-06-09T11:13:49.744Z,80.90
2018-06-09T11:16:20.055Z,79.50
2018-06-09T11:18:49.947Z,78.80
2018-06-09T11:21:19.739Z,75.60
2018-06-09T11:23:49.525Z,77.30
2018-06-09T11:26:19.364Z,77.20
2018-06-09T11:28:49.207Z,77.40
2018-06-09T11:31:19.005Z,74.70
2018-06-09T11:33:48.956Z,75.10
2018-06-09T11:36:18.768Z,73.20
2018-06-09T11:41:17.949Z,74.60
2018-06-09T11:43:48.367Z,73.90
2018-06-09T11:46:18.193Z,74.20
2018-06-09T11:51:17.314Z,72.50
2018-06-09T11:56:16.929Z,73.00
2018-06-09T11:58:47.415Z,72.30
2018-06-09T12:01:17.250Z,70.80
2018-06-09T12:03:47.068Z,69.80
2018-06-09T12:06:16.955Z,69.60
2018-06-09T12:08:46.813Z,70.50
2018-06-09T12:11:16.610Z,68.90
2018-06-09T12:13:46.439Z,69.80
2018-06-09T12:16:16.265Z,70.70
2018-06-09T12:18:46.116Z,71.70
2018-06-09T12:21:17.040Z,73.80
2018-06-09T12:23:47.321Z,74.50
2018-06-09T12:26:17.758Z,78.20
2018-06-09T12:28:47.777Z,79.10
2018-06-09T12:31:18.493Z,83.30
2018-06-09T12:33:48.331Z,83.90
2018-06-09T12:36:18.327Z,85.90
2018-06-09T12:38:48.108Z,86.80
2018-06-09T12:41:21.258Z,89.20
2018-06-09T12:43:51.987Z,87.90
2018-06-09T12:46:21.801Z,90.40
2018-06-09T12:48:51.783Z,89.60
2018-06-09T12:51:21.606Z,88.40
2018-06-09T12:53:51.437Z,87.70
2018-06-09T12:56:21.323Z,88.30
2018-06-09T12:58:51.135Z,89.40
2018-06-09T13:01:21.017Z,90.00
2018-06-09T13:03:50.902Z,90.20
2018-06-09T13:06:21.173Z,90.70
2018-06-09T13:08:51.114Z,91.00
2018-06-09T13:11:22.090Z,90.60
2018-06-09T13:13:51.881Z,90.20
2018-06-09T13:16:21.706Z,91.80
2018-06-09T13:18:51.511Z,91.00
2018-06-09T13:21:21.591Z,91.10
2018-06-09T13:23:51.376Z,90.10
2018-06-09T13:26:21.185Z,90.40
2018-06-09T13:28:51.222Z,89.90
2018-06-09T13:31:21.482Z,90.10
2018-06-09T13:33:51.704Z,89.60
2018-06-09T13:36:21.572Z,88.50
2018-06-09T13:38:51.432Z,88.80
2018-06-09T13:41:21.203Z,84.30
2018-06-09T13:43:51.030Z,85.20
2018-06-09T13:46:21.605Z,85.60
2018-06-09T13:48:51.408Z,87.00
2018-06-09T13:51:21.343Z,88.10
2018-06-09T13:53:51.141Z,89.40
2018-06-09T13:56:20.969Z,91.00
2018-06-09T13:58:50.793Z,91.10
2018-06-09T14:01:20.760Z,90.20
2018-06-09T14:03:50.728Z,88.70
2018-06-09T14:06:20.584Z,90.00
2018-06-09T14:08:50.400Z,87.00
2018-06-09T14:13:50.313Z,89.60
2018-06-09T14:16:20.130Z,90.30
2018-06-09T14:18:49.934Z,91.40
2018-06-09T14:21:19.989Z,92.20
2018-06-09T14:23:50.586Z,92.80
2018-06-09T14:26:20.390Z,90.90
2018-06-09T14:28:50.218Z,91.00
2018-06-09T14:31:20.038Z,90.30
2018-06-09T14:33:49.821Z,90.50
2018-06-09T14:36:20.656Z,91.50
2018-06-09T14:38:50.472Z,90.90
2018-06-09T14:41:20.344Z,91.30
2018-06-09T14:43:50.749Z,91.60
2018-06-09T14:46:20.980Z,91.40
2018-06-09T14:51:20.428Z,92.00
2018-06-09T14:53:52.124Z,92.00
2018-06-09T14:56:21.885Z,92.30
2018-06-09T14:58:51.748Z,92.00
2018-06-09T15:01:22.645Z,91.80
2018-06-09T15:03:52.517Z,92.10
2018-06-09T15:06:22.327Z,92.60
2018-06-09T15:08:52.122Z,92.20
2018-06-09T15:11:21.943Z,92.60
2018-06-09T15:13:52.370Z,93.20
2018-06-09T15:18:52.651Z,92.10
2018-06-09T15:21:22.469Z,93.50
2018-06-09T15:23:52.496Z,93.30
2018-06-09T15:26:22.303Z,93.60
2018-06-09T15:28:52.133Z,93.60
2018-06-09T15:31:21.954Z,93.30
2018-06-09T15:33:51.782Z,93.50
2018-06-09T15:36:24.790Z,93.10
2018-06-09T15:38:55.057Z,93.10
2018-06-09T15:41:24.848Z,93.80
2018-06-09T15:43:54.754Z,93.40
2018-06-09T15:46:24.573Z,93.80
2018-06-09T15:48:54.409Z,93.40
2018-06-09T15:51:24.205Z,92.60
2018-06-09T15:53:54.628Z,92.90
2018-06-09T15:56:24.524Z,93.00
2018-06-09T15:58:54.385Z,92.90
2018-06-09T16:01:24.254Z,92.50
2018-06-09T16:03:54.172Z,92.50
2018-06-09T16:06:23.965Z,92.90
2018-06-09T16:08:53.830Z,92.10
2018-06-09T16:11:23.614Z,94.00
2018-06-09T16:13:53.521Z,93.60
2018-06-09T16:16:23.392Z,94.00
2018-06-09T16:21:22.740Z,93.30
2018-06-09T16:23:52.627Z,91.10
2018-06-09T16:31:22.571Z,92.40
2018-06-09T16:33:52.374Z,91.40
2018-06-09T16:36:22.181Z,91.80
2018-06-09T16:38:52.559Z,91.70
2018-06-09T16:41:22.520Z,92.00
2018-06-09T16:43:52.400Z,92.50
2018-06-09T16:46:22.308Z,92.90
2018-06-09T16:48:52.834Z,92.80
2018-06-09T16:51:22.643Z,92.60
2018-06-09T16:53:53.148Z,92.50
2018-06-09T16:56:22.904Z,92.40
2018-06-09T16:58:52.854Z,92.00
2018-06-09T17:01:22.696Z,92.50
2018-06-09T17:03:53.154Z,93.10
2018-06-09T17:06:24.120Z,93.00
2018-06-09T17:08:53.914Z,92.70
2018-06-09T17:11:23.761Z,93.00
2018-06-09T17:13:53.610Z,93.40
2018-06-09T17:16:23.956Z,92.70
2018-06-09T17:18:53.788Z,92.90
2018-06-09T17:21:23.572Z,93.20
2018-06-09T17:23:53.390Z,93.80
2018-06-09T17:26:23.177Z,93.90
2018-06-09T17:28:53.039Z,93.70
2018-06-09T17:31:22.969Z,93.50
2018-06-09T17:36:23.128Z,92.50
2018-06-09T17:38:52.931Z,92.20
2018-06-09T17:41:23.385Z,92.20
2018-06-09T17:43:53.251Z,92.50
2018-06-09T17:46:23.617Z,92.50
2018-06-09T17:51:23.232Z,92.90
2018-06-09T17:53:53.114Z,93.10
2018-06-09T17:56:23.582Z,93.70
2018-06-09T18:01:23.282Z,95.00
2018-06-09T18:03:53.855Z,95.20
2018-06-09T18:06:23.758Z,95.40
2018-06-09T18:08:53.597Z,95.80
2018-06-09T18:11:23.560Z,95.70
2018-06-09T18:13:54.360Z,96.00
2018-06-09T18:16:24.204Z,95.60
2018-06-09T18:18:54.012Z,96.00
2018-06-09T18:21:23.837Z,96.30
2018-06-09T18:23:53.994Z,96.20
2018-06-09T18:26:24.411Z,96.70
2018-06-09T18:28:54.245Z,97.10
2018-06-09T18:31:24.156Z,97.70
2018-06-09T18:33:54.116Z,97.60
2018-06-09T18:36:25.196Z,97.60
2018-06-09T18:38:55.126Z,97.80
2018-06-09T18:41:24.970Z,98.30
2018-06-09T18:43:55.335Z,98.30
2018-06-09T18:46:25.218Z,98.40
2018-06-09T18:51:24.924Z,99.00
2018-06-09T18:53:54.872Z,99.10
2018-06-09T18:58:54.971Z,99.50
2018-06-09T19:01:25.859Z,99.70
2018-06-09T19:03:56.551Z,99.80
2018-06-09T19:06:26.603Z,99.90
2018-06-09T19:08:56.394Z,99.90
2018-06-09T19:11:26.240Z,99.90
2018-06-09T19:13:56.057Z,99.90
2018-06-09T19:16:25.923Z,99.90
2018-06-09T19:18:56.064Z,99.90
2018-06-09T19:21:25.957Z,99.90
2018-06-09T19:23:55.743Z,99.90
2018-06-09T19:26:25.665Z,99.90
2018-06-09T19:28:56.330Z,99.90
2018-06-09T19:31:26.240Z,99.90
2018-06-09T19:33:57.062Z,99.90
2018-06-09T19:36:26.906Z,99.90
2018-06-09T19:38:57.393Z,99.90
2018-06-09T19:41:27.358Z,99.90
2018-06-09T19:43:57.175Z,99.90
2018-06-09T19:46:27.041Z,99.90
2018-06-09T19:48:58.425Z,99.90
2018-06-09T19:51:28.342Z,99.90
2018-06-09T19:53:58.187Z,99.70
2018-06-09T19:56:34.673Z,99.90
2018-06-09T19:59:04.626Z,99.90
2018-06-09T20:01:34.483Z,99.90
2018-06-09T20:04:04.904Z,99.50
2018-06-09T20:06:34.866Z,97.80
2018-06-09T20:09:07.363Z,96.60
2018-06-09T20:11:37.250Z,96.20
2018-06-09T20:14:07.061Z,95.80
2018-06-09T20:16:36.995Z,95.10
2018-06-09T20:19:06.898Z,95.80
2018-06-09T20:21:36.757Z,95.70
2018-06-09T20:24:07.447Z,95.60
2018-06-09T20:26:38.324Z,95.00
2018-06-09T20:29:08.273Z,94.60
2018-06-09T20:31:38.093Z,94.30
2018-06-09T20:34:07.953Z,94.80
2018-06-09T20:36:37.851Z,94.40
2018-06-09T20:39:08.575Z,95.50
2018-06-09T20:41:38.502Z,96.40
2018-06-09T20:44:08.401Z,96.50
2018-06-09T20:46:38.309Z,96.30
2018-06-09T20:49:08.191Z,96.20
2018-06-09T20:51:38.103Z,96.50
2018-06-09T20:54:07.985Z,96.70
2018-06-09T20:56:37.845Z,96.30
2018-06-09T20:59:07.694Z,96.40
2018-06-09T21:01:37.649Z,96.50
2018-06-09T21:04:07.464Z,97.00
2018-06-09T21:06:39.093Z,96.90
2018-06-09T21:09:09.546Z,97.00
2018-06-09T21:11:40.114Z,97.50
2018-06-09T21:14:10.002Z,97.50
2018-06-09T21:16:40.131Z,97.10
2018-06-09T21:19:10.973Z,97.60
2018-06-09T21:21:40.768Z,97.90
2018-06-09T21:24:10.581Z,97.90
2018-06-09T21:26:45.710Z,97.70
2018-06-09T21:29:20.649Z,98.00
2018-06-09T21:31:50.449Z,97.80
2018-06-09T21:34:32.595Z,97.70
2018-06-09T21:37:07.745Z,97.20
2018-06-09T21:39:42.976Z,96.80
2018-06-09T21:42:18.179Z,97.00
2018-06-09T21:44:48.741Z,97.40
2018-06-09T21:47:19.150Z,96.90
2018-06-09T21:49:52.944Z,96.90
2018-06-09T21:52:22.801Z,97.10
2018-06-09T21:54:52.604Z,97.10
2018-06-09T21:57:22.405Z,97.20
2018-06-09T21:59:52.190Z,97.20
2018-06-09T22:02:22.137Z,97.70
2018-06-09T22:04:52.104Z,98.50
2018-06-09T22:07:21.902Z,97.90
2018-06-09T22:09:51.712Z,98.30
2018-06-09T22:12:22.333Z,97.90
2018-06-09T22:14:52.127Z,97.50
2018-06-09T22:17:21.949Z,97.50
2018-06-09T22:19:52.368Z,97.90
2018-06-09T22:22:25.401Z,97.80
2018-06-09T22:24:55.242Z,97.80
2018-06-09T22:27:25.187Z,97.80
2018-06-09T22:29:55.068Z,98.20
2018-06-09T22:32:24.953Z,99.00
2018-06-09T22:34:55.541Z,99.60
2018-06-09T22:37:25.416Z,99.90
2018-06-09T22:39:55.314Z,99.90
2018-06-09T22:42:25.337Z,99.90
2018-06-09T22:44:58.044Z,99.90
2018-06-09T22:47:27.931Z,99.90
2018-06-09T22:49:58.518Z,99.90
2018-06-09T22:52:28.309Z,99.90
2018-06-09T22:54:58.142Z,99.90
2018-06-09T22:57:27.953Z,99.90
2018-06-09T22:59:57.775Z,99.90
2018-06-09T23:02:27.590Z,99.90
2018-06-09T23:04:57.464Z,99.90
2018-06-09T23:09:56.545Z,99.90
2018-06-09T23:12:26.355Z,99.90
2018-06-09T23:14:56.213Z,99.90
2018-06-09T23:17:26.028Z,99.90
2018-06-09T23:19:55.845Z,99.90
2018-06-09T23:22:25.689Z,99.90
2018-06-09T23:24:55.459Z,99.90
2018-06-09T23:27:26.237Z,99.90
2018-06-09T23:29:56.009Z,99.90
2018-06-09T23:32:26.322Z,99.90
2018-06-09T23:34:56.200Z,99.90
2018-06-09T23:37:26.097Z,99.90
2018-06-09T23:39:55.877Z,99.90
2018-06-09T23:44:54.915Z,99.90
2018-06-09T23:47:24.965Z,99.90
2018-06-09T23:49:54.753Z,99.90
2018-06-09T23:52:24.514Z,99.90
2018-06-09T23:54:54.300Z,99.90
2018-06-09T23:57:24.662Z,99.90
2018-06-09T23:59:54.456Z,99.90
